Terminal Aerodrome Forecast
Issued by NWS Twin Cities, MN

Home | Current Version | Previous Version | Graphics & Text | Print | Product List | Glossary On
Versions: 1 2 3 4 5 6 7 8 9 10 11 12 13 14 15 16 17 18 19 20 21 22 23 24 25
870
FTUS43 KMPX 181502 AAA
TAFMSP
TAF AMD
KMSP 181502Z 1815/1918 23005KT P6SM -RA SCT050 OVC100
     FM181800 24006KT P6SM SCT050 BKN100
     FM190100 30004KT P6SM SCT100 BKN250
     FM190500 VRB02KT P6SM SKC
     FM191000 VRB02KT 5SM BR SKC
     FM191400 27003KT P6SM SCT250=

USA.gov is the U.S. government's official web portal to all federal, state and local government web resources and services.